createdAt,value
2022-08-26T00:01:29.906Z,98856.72
2022-08-26T00:04:34.985Z,98838.44
2022-08-26T00:07:38.340Z,98833.63
2022-08-26T00:10:42.397Z,98836.00
2022-08-26T00:13:47.884Z,98840.94
2022-08-26T00:16:53.379Z,98843.66
2022-08-26T00:19:59.980Z,98848.69
2022-08-26T00:23:04.070Z,98857.22
2022-08-26T00:26:08.335Z,98851.28
2022-08-26T00:29:14.844Z,98849.44
2022-08-26T00:32:18.295Z,98844.09
2022-08-26T00:35:23.748Z,98849.97
2022-08-26T00:38:27.132Z,98844.59
2022-08-26T00:41:30.586Z,98848.50
2022-08-26T00:44:33.868Z,98852.63
2022-08-26T00:47:41.679Z,98849.97
2022-08-26T00:50:52.264Z,98841.94
2022-08-26T00:53:59.091Z,98841.63
2022-08-26T00:57:08.741Z,98848.84
2022-08-26T01:00:23.821Z,98845.31
2022-08-26T01:03:29.172Z,98837.34
2022-08-26T01:06:34.658Z,98832.53
2022-08-26T01:09:38.399Z,98827.13
2022-08-26T01:12:46.652Z,98831.78
2022-08-26T01:15:54.769Z,98842.22
2022-08-26T01:19:03.131Z,98853.13
2022-08-26T01:22:13.532Z,98844.53
2022-08-26T01:25:20.593Z,98833.97
2022-08-26T01:28:28.177Z,98821.38
2022-08-26T01:31:37.756Z,98824.03
2022-08-26T01:34:42.876Z,98822.47
2022-08-26T01:37:46.802Z,98823.22
2022-08-26T01:40:52.065Z,98822.38
2022-08-26T01:43:58.742Z,98822.94
2022-08-26T01:47:03.311Z,98821.75
2022-08-26T01:50:15.710Z,98823.88
2022-08-26T01:53:32.329Z,98825.25
2022-08-26T01:56:37.877Z,98827.66
2022-08-26T01:59:41.260Z,98833.56
2022-08-26T02:02:47.665Z,98841.66
2022-08-26T02:05:55.505Z,98840.78
2022-08-26T02:09:03.954Z,98843.81
2022-08-26T02:12:10.356Z,98830.56
2022-08-26T02:15:14.142Z,98834.91
2022-08-26T02:18:17.588Z,98850.72
2022-08-26T02:21:21.006Z,98847.09
2022-08-26T02:24:27.814Z,98839.66
2022-08-26T02:27:36.923Z,98829.63
2022-08-26T02:30:42.002Z,98825.81
2022-08-26T02:33:45.372Z,98832.06
2022-08-26T02:36:49.464Z,98828.19
2022-08-26T02:39:54.330Z,98830.03
2022-08-26T02:42:59.135Z,98828.72
2022-08-26T02:46:03.382Z,98821.69
2022-08-26T02:49:06.768Z,98825.91
2022-08-26T02:52:10.155Z,98823.41
2022-08-26T02:55:13.588Z,98821.19
2022-08-26T02:58:18.494Z,98824.66
2022-08-26T03:01:25.890Z,98820.81
2022-08-26T03:04:33.489Z,98828.38
2022-08-26T03:07:36.980Z,98820.31
2022-08-26T03:10:40.854Z,98823.22
2022-08-26T03:13:46.587Z,98820.41
2022-08-26T03:16:51.944Z,98819.84
2022-08-26T03:19:57.207Z,98813.81
2022-08-26T03:23:01.315Z,98819.25
2022-08-26T03:26:06.161Z,98825.72
2022-08-26T03:29:28.711Z,98824.53
2022-08-26T03:32:36.344Z,98839.31
2022-08-26T03:35:43.592Z,98834.34
2022-08-26T03:38:47.228Z,98839.75
2022-08-26T03:41:51.843Z,98830.75
2022-08-26T03:44:57.234Z,98822.09
2022-08-26T03:48:01.060Z,98829.19
2022-08-26T03:51:12.244Z,98842.38
2022-08-26T03:54:15.707Z,98832.31
2022-08-26T03:57:19.372Z,98833.53
2022-08-26T04:00:24.248Z,98835.78
2022-08-26T04:03:46.021Z,98836.44
2022-08-26T04:06:49.354Z,98831.50
2022-08-26T04:09:56.154Z,98828.97
2022-08-26T04:13:00.242Z,98818.06
2022-08-26T04:16:05.452Z,98833.81
2022-08-26T04:19:09.709Z,98833.00
2022-08-26T04:22:14.090Z,98837.66
2022-08-26T04:25:18.692Z,98841.53
2022-08-26T04:28:24.872Z,98831.50
2022-08-26T04:31:30.983Z,98832.16
2022-08-26T04:34:35.768Z,98830.75
2022-08-26T04:37:39.011Z,98836.25
2022-08-26T04:40:47.498Z,98844.56
2022-08-26T04:43:50.939Z,98836.25
2022-08-26T04:46:56.100Z,98834.81
2022-08-26T04:50:00.132Z,98831.63
2022-08-26T04:53:05.625Z,98839.16
2022-08-26T04:56:10.677Z,98835.34
2022-08-26T04:59:18.171Z,98830.13
2022-08-26T05:02:23.070Z,98834.38
2022-08-26T05:05:28.625Z,98835.84
2022-08-26T05:08:31.956Z,98832.59
2022-08-26T05:11:35.799Z,98839.88
2022-08-26T05:14:39.335Z,98847.84
2022-08-26T05:17:44.073Z,98844.75
2022-08-26T05:20:49.983Z,98846.34
2022-08-26T05:23:54.948Z,98856.47
2022-08-26T05:26:58.191Z,98855.41
2022-08-26T05:30:03.478Z,98856.47
2022-08-26T05:33:09.863Z,98858.13
2022-08-26T05:36:16.450Z,98855.94
2022-08-26T05:39:20.104Z,98863.47
2022-08-26T05:42:24.283Z,98865.09
2022-08-26T05:45:28.265Z,98867.50
2022-08-26T05:48:32.987Z,98870.91
2022-08-26T05:51:36.599Z,98873.44
2022-08-26T05:54:41.004Z,98880.94
2022-08-26T05:57:44.394Z,98883.31
2022-08-26T06:00:49.601Z,98898.88
2022-08-26T06:03:57.020Z,98888.16
2022-08-26T06:07:03.052Z,98885.22
2022-08-26T06:10:31.610Z,98878.78
2022-08-26T06:13:36.415Z,98879.56
2022-08-26T06:16:43.971Z,98884.44
2022-08-26T06:19:49.260Z,98892.38
2022-08-26T06:23:10.230Z,98884.91
2022-08-26T06:26:14.897Z,98896.13
2022-08-26T06:29:24.051Z,98891.31
2022-08-26T06:32:28.209Z,98912.53
2022-08-26T06:35:38.031Z,98906.88
2022-08-26T06:38:42.063Z,98916.56
2022-08-26T06:41:46.266Z,98917.91
2022-08-26T06:44:54.325Z,98909.28
2022-08-26T06:47:57.757Z,98920.78
2022-08-26T06:51:09.088Z,98926.19
2022-08-26T06:54:12.641Z,98923.72
2022-08-26T06:57:16.721Z,98930.22
2022-08-26T07:00:20.876Z,98923.81
2022-08-26T07:03:24.315Z,98932.38
2022-08-26T07:06:29.828Z,98937.22
2022-08-26T07:09:35.464Z,98943.28
2022-08-26T07:12:40.599Z,98934.03
2022-08-26T07:15:44.655Z,98940.50
2022-08-26T07:18:48.713Z,98943.28
2022-08-26T07:21:54.625Z,98950.28
2022-08-26T07:24:59.008Z,98955.47
2022-08-26T07:28:02.803Z,98955.28
2022-08-26T07:31:09.812Z,98948.19
2022-08-26T07:34:13.986Z,98951.28
2022-08-26T07:37:18.911Z,98948.88
2022-08-26T07:40:23.745Z,98944.91
2022-08-26T07:43:27.516Z,98939.91
2022-08-26T07:46:32.908Z,98941.97
2022-08-26T07:49:37.229Z,98944.91
2022-08-26T07:52:42.866Z,98935.25
2022-08-26T07:55:46.864Z,98933.50
2022-08-26T07:58:51.585Z,98937.34
2022-08-26T08:01:57.581Z,98936.13
2022-08-26T08:05:01.035Z,98941.63
2022-08-26T08:08:26.621Z,98938.91
2022-08-26T08:11:31.332Z,98944.13
2022-08-26T08:14:37.293Z,98947.25
2022-08-26T08:17:40.855Z,98955.50
2022-08-26T08:20:47.718Z,98953.63
2022-08-26T08:24:04.425Z,98952.16
2022-08-26T08:27:07.907Z,98948.19
2022-08-26T08:30:13.865Z,98945.41
2022-08-26T08:33:17.470Z,98955.69
2022-08-26T08:36:22.941Z,98952.28
2022-08-26T08:39:27.792Z,98950.63
2022-08-26T08:42:43.977Z,98951.38
2022-08-26T08:45:50.812Z,98946.47
2022-08-26T08:48:59.815Z,98946.69
2022-08-26T08:52:11.479Z,98945.09
2022-08-26T08:55:18.259Z,98943.78
2022-08-26T08:58:28.275Z,98949.63
2022-08-26T09:01:43.536Z,98943.56
2022-08-26T09:04:59.909Z,98941.00
2022-08-26T09:08:07.389Z,98945.56
2022-08-26T09:11:18.635Z,98938.03
2022-08-26T09:14:22.856Z,98941.13
2022-08-26T09:17:35.600Z,98938.28
2022-08-26T09:20:50.933Z,98940.28
2022-08-26T09:23:56.649Z,98940.44
2022-08-26T09:27:01.920Z,98934.63
2022-08-26T09:30:06.313Z,98940.28
2022-08-26T09:33:16.746Z,98932.81
2022-08-26T09:36:26.380Z,98938.50
2022-08-26T09:39:34.746Z,98940.91
2022-08-26T09:42:42.435Z,98929.44
2022-08-26T09:45:50.714Z,98930.34
2022-08-26T09:48:56.311Z,98937.41
2022-08-26T09:52:15.911Z,98945.47
2022-08-26T09:55:23.997Z,98941.19
2022-08-26T09:58:38.069Z,98943.72
2022-08-26T10:01:43.548Z,98938.72
2022-08-26T10:04:54.193Z,98953.50
2022-08-26T10:07:59.655Z,98950.59
2022-08-26T10:11:06.875Z,98947.69
2022-08-26T10:14:17.073Z,98947.59
2022-08-26T10:17:29.175Z,98952.28
2022-08-26T10:20:39.359Z,98957.72
2022-08-26T10:23:46.103Z,98949.34
2022-08-26T10:27:01.060Z,98955.09
2022-08-26T10:30:10.139Z,98956.75
2022-08-26T10:33:17.981Z,98961.75
2022-08-26T10:37:05.090Z,98967.06
2022-08-26T10:40:12.777Z,98966.78
2022-08-26T10:43:22.667Z,98975.75
2022-08-26T10:46:41.031Z,98972.25
2022-08-26T10:49:46.991Z,98975.03
2022-08-26T10:53:02.283Z,98975.59
2022-08-26T10:56:15.720Z,98966.97
2022-08-26T10:59:29.838Z,98964.53
2022-08-26T11:02:40.729Z,98959.50
2022-08-26T11:06:17.376Z,98959.59
2022-08-26T11:09:53.187Z,98957.00
2022-08-26T11:13:00.934Z,98953.13
2022-08-26T11:16:04.568Z,98954.72
2022-08-26T11:19:11.842Z,98954.91
2022-08-26T11:22:27.200Z,98947.78
2022-08-26T11:25:31.077Z,98945.34
2022-08-26T11:28:36.518Z,98941.03
2022-08-26T11:32:10.443Z,98934.75
2022-08-26T11:35:48.653Z,98932.47
2022-08-26T11:38:53.574Z,98929.25
2022-08-26T11:42:00.556Z,98935.88
2022-08-26T11:45:15.507Z,98936.56
2022-08-26T11:48:20.959Z,98938.75
2022-08-26T11:51:26.109Z,98937.06
2022-08-26T11:54:35.659Z,98932.25
2022-08-26T11:57:46.601Z,98912.91
2022-08-26T12:00:55.858Z,98917.59
2022-08-26T12:04:01.078Z,98894.81
2022-08-26T12:07:08.645Z,98888.34
2022-08-26T12:10:29.945Z,98885.81
2022-08-26T12:13:34.071Z,98895.44
2022-08-26T12:16:40.262Z,98891.22
2022-08-26T12:19:44.055Z,98887.03
2022-08-26T12:22:48.624Z,98883.63
2022-08-26T12:26:03.170Z,98884.00
2022-08-26T12:29:19.941Z,98873.03
2022-08-26T12:32:25.707Z,98877.06
2022-08-26T12:35:29.643Z,98875.06
2022-08-26T12:38:36.883Z,98875.09
2022-08-26T12:41:49.099Z,98875.31
2022-08-26T12:45:00.767Z,98871.72
2022-08-26T12:48:08.533Z,98874.69
2022-08-26T12:51:24.809Z,98857.44
2022-08-26T12:54:48.601Z,98866.31
2022-08-26T12:58:11.702Z,98854.72
2022-08-26T13:01:23.697Z,98856.66
2022-08-26T13:04:34.684Z,98858.34
2022-08-26T13:07:38.278Z,98855.09
2022-08-26T13:10:44.465Z,98849.97
2022-08-26T13:13:51.852Z,98850.22
2022-08-26T13:16:56.739Z,98855.13
2022-08-26T13:20:04.216Z,98851.91
2022-08-26T13:23:09.209Z,98853.22
2022-08-26T13:26:12.680Z,98843.81
2022-08-26T13:29:18.026Z,98848.13
2022-08-26T13:32:26.830Z,98846.84
2022-08-26T13:35:30.984Z,98837.84
2022-08-26T13:38:34.792Z,98841.25
2022-08-26T13:41:39.569Z,98846.91
2022-08-26T13:44:45.174Z,98848.34
2022-08-26T13:47:48.958Z,98837.44
2022-08-26T13:50:53.797Z,98840.94
2022-08-26T13:53:58.115Z,98835.94
2022-08-26T13:57:01.459Z,98836.13
2022-08-26T14:00:10.931Z,98843.13
2022-08-26T14:03:14.658Z,98841.63
2022-08-26T14:06:18.193Z,98838.38
2022-08-26T14:09:21.596Z,98843.00
2022-08-26T14:12:24.996Z,98846.69
2022-08-26T14:15:29.872Z,98848.63
2022-08-26T14:18:41.096Z,98843.66
2022-08-26T14:21:45.375Z,98835.97
2022-08-26T14:24:49.478Z,98836.44
2022-08-26T14:27:54.064Z,98840.34
2022-08-26T14:30:59.650Z,98840.34
2022-08-26T14:34:05.496Z,98837.31
2022-08-26T14:37:10.641Z,98842.72
2022-08-26T14:40:18.794Z,98847.13
2022-08-26T14:43:22.212Z,98835.53
2022-08-26T14:46:29.023Z,98848.13
2022-08-26T14:49:33.934Z,98836.84
2022-08-26T14:52:57.334Z,98838.59
2022-08-26T14:56:00.726Z,98828.34
2022-08-26T14:59:04.211Z,98833.84
2022-08-26T15:02:13.664Z,98831.84
2022-08-26T15:05:25.815Z,98835.53
2022-08-26T15:08:29.117Z,98835.72
2022-08-26T15:11:32.679Z,98833.84
2022-08-26T15:14:36.430Z,98833.34
2022-08-26T15:17:43.366Z,98832.53
2022-08-26T15:20:48.452Z,98826.09
2022-08-26T15:23:53.238Z,98832.75
2022-08-26T15:26:56.752Z,98827.41
2022-08-26T15:30:00.209Z,98828.94
2022-08-26T15:33:05.011Z,98825.44
2022-08-26T15:36:10.158Z,98819.66
2022-08-26T15:39:13.496Z,98819.13
2022-08-26T15:42:16.845Z,98812.03
2022-08-26T15:45:24.841Z,98810.81
2022-08-26T15:48:31.063Z,98820.13
2022-08-26T15:51:45.631Z,98819.75
2022-08-26T15:54:49.240Z,98823.00
2022-08-26T15:57:53.775Z,98818.81
2022-08-26T16:00:58.413Z,98813.97
2022-08-26T16:04:03.401Z,98819.56
2022-08-26T16:07:07.195Z,98819.88
2022-08-26T16:10:11.356Z,98823.38
2022-08-26T16:13:15.095Z,98824.75
2022-08-26T16:16:18.954Z,98822.69
2022-08-26T16:19:23.829Z,98824.72
2022-08-26T16:22:27.231Z,98826.50
2022-08-26T16:25:34.087Z,98832.00
2022-08-26T16:28:37.489Z,98829.22
2022-08-26T16:31:42.162Z,98833.97
2022-08-26T16:34:56.569Z,98837.25
2022-08-26T16:38:00.347Z,98836.88
2022-08-26T16:41:03.752Z,98833.91
2022-08-26T16:44:08.332Z,98833.22
2022-08-26T16:47:13.183Z,98836.19
2022-08-26T16:50:19.522Z,98837.59
2022-08-26T16:53:23.028Z,98838.44
2022-08-26T16:56:34.091Z,98838.66
2022-08-26T16:59:37.863Z,98838.47
2022-08-26T17:02:41.632Z,98842.44
2022-08-26T17:05:46.405Z,98843.97
2022-08-26T17:08:49.830Z,98851.53
2022-08-26T17:11:53.433Z,98853.03
2022-08-26T17:14:56.977Z,98852.81
2022-08-26T17:18:00.386Z,98848.22
2022-08-26T17:21:08.262Z,98858.56
2022-08-26T17:24:11.696Z,98864.44
2022-08-26T17:27:15.140Z,98871.59
2022-08-26T17:30:18.850Z,98869.66
2022-08-26T17:33:24.636Z,98873.50
2022-08-26T17:36:30.307Z,98874.34
2022-08-26T17:39:33.666Z,98879.50
2022-08-26T17:42:38.361Z,98880.03
2022-08-26T17:45:42.220Z,98882.72
2022-08-26T17:48:47.282Z,98887.34
2022-08-26T17:51:52.053Z,98884.94
2022-08-26T17:54:56.460Z,98893.97
2022-08-26T17:58:00.165Z,98899.19
2022-08-26T18:01:07.849Z,98902.22
2022-08-26T18:04:11.998Z,98893.06
2022-08-26T18:07:17.523Z,98892.41
2022-08-26T18:10:22.363Z,98891.03
2022-08-26T18:13:25.824Z,98893.22
2022-08-26T18:16:29.465Z,98889.84
2022-08-26T18:19:32.933Z,98891.03
2022-08-26T18:22:37.788Z,98888.22
2022-08-26T18:25:42.364Z,98890.13
2022-08-26T18:28:45.615Z,98901.34
2022-08-26T18:31:49.714Z,98890.09
2022-08-26T18:34:53.284Z,98897.94
2022-08-26T18:38:00.857Z,98891.72
2022-08-26T18:41:09.851Z,98892.28
2022-08-26T18:44:14.449Z,98890.88
2022-08-26T18:47:17.882Z,98885.94
2022-08-26T18:50:21.437Z,98896.88
2022-08-26T18:53:26.644Z,98893.91
2022-08-26T18:56:31.555Z,98895.78
2022-08-26T18:59:34.942Z,98901.41
2022-08-26T19:02:38.459Z,98893.44
2022-08-26T19:05:41.947Z,98891.22
2022-08-26T19:08:49.851Z,98895.28
2022-08-26T19:11:53.866Z,98903.03
2022-08-26T19:14:57.289Z,98898.81
2022-08-26T19:18:00.813Z,98896.06
2022-08-26T19:21:04.819Z,98893.44
2022-08-26T19:24:15.545Z,98901.81
2022-08-26T19:27:19.090Z,98906.25
2022-08-26T19:30:22.403Z,98905.78
2022-08-26T19:33:25.834Z,98902.81
2022-08-26T19:36:30.459Z,98906.66
2022-08-26T19:39:36.194Z,98913.59
2022-08-26T19:42:39.458Z,98910.63
2022-08-26T19:45:42.807Z,98914.88
2022-08-26T19:48:46.540Z,98910.66
2022-08-26T19:51:50.020Z,98913.63
2022-08-26T19:54:54.710Z,98917.34
2022-08-26T19:57:58.107Z,98923.53
2022-08-26T20:01:01.508Z,98921.09
2022-08-26T20:04:05.387Z,98925.97
2022-08-26T20:07:14.142Z,98929.44
2022-08-26T20:10:24.561Z,98937.19
2022-08-26T20:13:28.351Z,98938.53
2022-08-26T20:16:32.922Z,98944.41
2022-08-26T20:19:53.706Z,98950.88
2022-08-26T20:22:58.932Z,98948.22
2022-08-26T20:26:04.117Z,98951.38
2022-08-26T20:29:09.011Z,98949.56
2022-08-26T20:32:13.138Z,98951.41
2022-08-26T20:35:16.758Z,98958.38
2022-08-26T20:38:21.528Z,98951.94
2022-08-26T20:41:27.640Z,98955.69
2022-08-26T20:44:31.047Z,98947.59
2022-08-26T20:47:34.771Z,98942.28
2022-08-26T20:50:39.140Z,98942.53
2022-08-26T20:53:42.736Z,98939.34
2022-08-26T20:56:48.364Z,98942.47
2022-08-26T20:59:51.694Z,98938.97
2022-08-26T21:02:55.115Z,98943.25
2022-08-26T21:05:58.373Z,98944.63
2022-08-26T21:09:02.228Z,98938.50
2022-08-26T21:12:07.262Z,98941.31
2022-08-26T21:15:11.885Z,98936.50
2022-08-26T21:18:15.387Z,98940.00
2022-08-26T21:21:18.675Z,98935.16
2022-08-26T21:24:28.704Z,98930.94
2022-08-26T21:27:35.170Z,98928.09
2022-08-26T21:30:39.189Z,98933.44
2022-08-26T21:33:43.089Z,98926.47
2022-08-26T21:36:47.130Z,98928.88
2022-08-26T21:39:54.197Z,98925.75
2022-08-26T21:42:58.999Z,98932.19
2022-08-26T21:46:04.229Z,98928.44
2022-08-26T21:49:09.982Z,98934.78
2022-08-26T21:52:13.779Z,98943.97
2022-08-26T21:55:17.149Z,98941.19
2022-08-26T21:58:21.986Z,98934.25
2022-08-26T22:01:27.679Z,98936.50
2022-08-26T22:04:30.940Z,98939.63
2022-08-26T22:07:34.337Z,98939.22
2022-08-26T22:10:40.017Z,98947.25
2022-08-26T22:13:45.653Z,98948.13
2022-08-26T22:16:50.292Z,98952.59
2022-08-26T22:19:55.230Z,98951.38
2022-08-26T22:23:01.203Z,98954.78
2022-08-26T22:26:05.130Z,98949.06
2022-08-26T22:29:09.868Z,98950.59
2022-08-26T22:32:13.685Z,98944.56
2022-08-26T22:35:29.036Z,98949.50
2022-08-26T22:38:33.261Z,98946.94
2022-08-26T22:41:36.635Z,98951.97
2022-08-26T22:44:41.333Z,98953.22
2022-08-26T22:47:44.718Z,98944.34
2022-08-26T22:50:49.968Z,98956.22
2022-08-26T22:53:53.344Z,98948.03
2022-08-26T22:56:56.827Z,98954.00
2022-08-26T23:00:01.566Z,98955.47
2022-08-26T23:03:05.865Z,98951.91
2022-08-26T23:06:10.243Z,98954.66
2022-08-26T23:09:14.026Z,98947.75
2022-08-26T23:12:17.354Z,98948.69
2022-08-26T23:15:22.874Z,98945.72
2022-08-26T23:18:26.162Z,98950.13
2022-08-26T23:21:29.607Z,98956.78
2022-08-26T23:24:33.456Z,98960.22
2022-08-26T23:27:37.997Z,98958.78
2022-08-26T23:30:42.724Z,98955.38
2022-08-26T23:34:03.868Z,98959.00
2022-08-26T23:37:07.819Z,98960.09
2022-08-26T23:40:13.932Z,98963.44
2022-08-26T23:43:17.754Z,98963.25
2022-08-26T23:46:22.440Z,98954.03
2022-08-26T23:49:26.749Z,98959.88
2022-08-26T23:52:47.733Z,98954.34
2022-08-26T23:55:53.462Z,98952.56
2022-08-26T23:58:57.347Z,98949.16
